Time;durP1;ratioP1;P1;durP2;ratioP2;P2;SDS_P1;SDS_P2;PMS_P1;PMS_P2;Temp;Humidity;BMP_temperature;BMP_pressure;BME280_temperature;BME280_humidity;BME280_pressure;Samples;Min_cycle;Max_cycle;Signal;HPM_P1;HPM_P2
2022/12/25 00:02:18;;;;;;;;;69.20;59.20;;;;;19.52;58.42;95069.47;5052347;28;8832;-60
2022/12/25 00:04:48;;;;;;;;;72.80;60.20;;;;;19.54;56.85;95078.09;5051540;28;8835;-61
2022/12/25 00:07:20;;;;;;;;;67.50;57.75;;;;;19.54;56.71;95080.88;5033773;28;8848;-60
2022/12/25 00:09:52;;;;;;;;;68.25;58.75;;;;;19.55;56.06;95079.66;5052422;28;8918;-60
2022/12/25 00:12:23;;;;;;;;;71.00;60.00;;;;;19.55;56.09;95076.91;5051829;28;8835;-58
2022/12/25 00:18:29;;;;;;;;;70.25;59.25;;;;;19.58;55.71;95076.03;5051231;28;8832;-60
2022/12/25 00:21:04;;;;;;;;;68.60;58.40;;;;;19.61;55.75;95068.84;5051570;28;8828;-58
2022/12/25 00:23:35;;;;;;;;;72.00;60.00;;;;;19.65;55.94;95057.72;5051929;28;8816;-57
2022/12/25 00:26:11;;;;;;;;;68.20;58.00;;;;;19.75;56.78;95062.97;5051539;28;8823;-59
2022/12/25 00:28:42;;;;;;;;;72.00;60.00;;;;;19.81;57.36;95059.69;5033486;28;8851;-60
2022/12/25 00:31:16;;;;;;;;;69.50;58.50;;;;;19.79;55.74;95054.56;5051751;28;8836;-60
2022/12/25 00:33:47;;;;;;;;;68.25;58.00;;;;;19.82;56.94;95052.94;5052095;28;8839;-60
2022/12/25 00:36:20;;;;;;;;;67.40;57.80;;;;;19.84;57.35;95056.81;5051969;28;8847;-61
2022/12/25 00:38:50;;;;;;;;;68.20;58.40;;;;;19.86;58.28;95054.44;5052105;28;8874;-62
2022/12/25 00:44:12;;;;;;;;;70.25;58.75;;;;;19.82;58.63;95053.72;5051431;28;8950;-59
2022/12/25 00:46:43;;;;;;;;;70.00;59.25;;;;;19.78;58.16;95044.75;5051920;28;8836;-59
2022/12/25 00:49:13;;;;;;;;;68.60;58.60;;;;;19.74;57.32;95049.56;5052091;28;8855;-59
2022/12/25 00:51:42;;;;;;;;;71.00;59.25;;;;;19.70;57.30;95044.13;5051793;28;8839;-60
2022/12/25 00:54:13;;;;;;;;;70.60;59.60;;;;;19.68;57.22;95043.78;5051991;28;8828;-60
2022/12/25 00:56:44;;;;;;;;;69.20;58.40;;;;;19.65;56.45;95032.81;5051815;28;8828;-60
2022/12/25 00:59:15;;;;;;;;;69.80;58.40;;;;;19.62;57.85;95040.75;5052218;28;8832;-59
2022/12/25 01:01:45;;;;;;;;;70.20;59.80;;;;;19.61;56.90;95038.44;5051023;28;8866;-61
2022/12/25 01:04:16;;;;;;;;;71.40;59.60;;;;;19.59;57.14;95033.34;5051600;28;8886;-60
2022/12/25 01:06:49;;;;;;;;;71.50;59.25;;;;;19.57;57.35;95029.47;5051861;28;8832;-60
2022/12/25 01:12:09;;;;;;;;;73.75;60.25;;;;;19.55;56.96;95031.88;5051660;28;8850;-61
2022/12/25 01:14:38;;;;;;;;;71.80;59.40;;;;;19.53;57.53;95026.78;5052212;28;8808;-60
2022/12/25 01:17:08;;;;;;;;;69.00;58.80;;;;;19.52;56.96;95028.00;5051415;28;8844;-60
2022/12/25 01:19:39;;;;;;;;;74.00;61.00;;;;;19.52;57.21;95032.75;5052132;28;8835;-60
2022/12/25 01:22:10;;;;;;;;;71.00;59.00;;;;;19.51;57.94;95033.94;5051370;28;8843;-60
2022/12/25 01:24:43;;;;;;;;;72.25;60.25;;;;;19.49;57.19;95037.16;5052008;28;8839;-59
2022/12/25 01:27:14;;;;;;;;;70.80;60.40;;;;;19.49;56.95;95041.91;5051381;28;8959;-60
2022/12/25 01:29:45;;;;;;;;;69.80;58.60;;;;;19.48;57.39;95040.38;5051717;28;8832;-59
2022/12/25 01:32:15;;;;;;;;;70.80;59.40;;;;;19.47;56.83;95036.81;5051405;28;8824;-60
2022/12/25 01:34:45;;;;;;;;;69.60;59.00;;;;;19.46;56.69;95038.81;5051834;28;8953;-60
2022/12/25 01:37:25;;;;;;;;;69.80;59.60;;;;;19.45;56.41;95036.44;5051452;28;8950;-59
2022/12/25 01:39:56;;;;;;;;;67.50;57.50;;;;;19.44;55.87;95035.69;5051891;28;8922;-59
2022/12/25 01:42:26;;;;;;;;;68.50;57.25;;;;;19.45;56.35;95036.44;5051326;28;8959;-59
2022/12/25 01:45:31;;;;;;;;;70.50;59.25;;;;;19.43;56.13;95038.91;5051151;28;8828;-59
2022/12/25 01:48:05;;;;;;;;;68.25;58.75;;;;;19.43;56.24;95044.41;5051040;28;8855;-60
2022/12/25 01:50:36;;;;;;;;;70.80;59.20;;;;;19.42;56.01;95049.16;5051500;28;8824;-59
2022/12/25 01:53:07;;;;;;;;;68.80;59.00;;;;;19.42;55.95;95053.91;5051817;28;8832;-59
2022/12/25 01:55:40;;;;;;;;;67.75;57.00;;;;;19.41;55.76;95061.41;5054963;28;8969;-59
2022/12/25 01:58:10;;;;;;;;;69.25;58.00;;;;;19.41;55.75;95074.47;5055069;28;8848;-59
2022/12/25 02:00:40;;;;;;;;;67.80;56.80;;;;;19.40;55.14;95067.38;5055169;28;8843;-60
2022/12/25 02:03:11;;;;;;;;;67.20;57.00;;;;;19.40;54.91;95064.63;5055209;28;8974;-59
2022/12/25 02:05:42;;;;;;;;;70.20;60.00;;;;;19.40;54.92;95072.91;5055061;28;8961;-59
2022/12/25 02:08:16;;;;;;;;;68.25;58.25;;;;;19.40;54.56;95067.38;5055344;28;8878;-59
2022/12/25 02:10:45;;;;;;;;;66.50;56.25;;;;;19.40;54.34;95070.94;5055366;28;8823;-59
2022/12/25 02:13:18;;;;;;;;;66.75;56.00;;;;;19.40;54.42;95068.19;5055559;28;8836;-59
2022/12/25 02:16:09;;;;;;;;;68.00;57.40;;;;;19.41;54.36;95063.41;5055292;28;8851;-59
2022/12/25 02:18:46;;;;;;;;;66.20;57.00;;;;;19.40;54.12;95065.41;5055343;28;8850;-59
2022/12/25 02:21:51;;;;;;;;;67.80;57.20;;;;;19.41;53.91;95053.13;5055301;28;8816;-59
2022/12/25 02:24:28;;;;;;;;;66.00;55.00;;;;;19.41;53.85;95058.66;5054563;28;8848;-59
2022/12/25 02:27:21;;;;;;;;;67.20;58.00;;;;;19.40;53.44;95046.06;5055228;28;8929;-59
2022/12/25 02:30:12;;;;;;;;;64.60;55.80;;;;;19.41;53.54;95057.88;5047077;28;8851;-60
2022/12/25 02:32:51;;;;;;;;;67.40;57.80;;;;;19.41;53.31;95044.84;5055183;28;8844;-59
2022/12/25 02:35:29;;;;;;;;;65.25;54.25;;;;;19.41;53.30;95044.84;5054544;28;8839;-60
2022/12/25 02:38:10;;;;;;;;;69.40;57.60;;;;;19.42;52.95;95051.16;5055214;28;8828;-59
2022/12/25 02:40:50;;;;;;;;;66.40;56.00;;;;;19.41;52.99;95050.38;5055014;28;8824;-59
2022/12/25 03:07:03;;;;;;;;;64.40;54.60;;;;;19.42;54.57;95076.03;5053214;28;8838;-59
2022/12/25 03:12:36;;;;;;;;;65.40;55.60;;;;;19.39;54.96;95085.97;5054644;28;8839;-59
2022/12/25 03:18:02;;;;;;;;;50.00;46.00;;;;;19.38;55.27;95089.16;5054264;28;8914;-59
2022/12/25 03:32:35;;;;;;;;;69.00;59.40;;;;;19.34;55.30;95078.19;5012366;28;8955;-59
2022/12/25 03:35:22;;;;;;;;;63.60;54.40;;;;;19.33;55.16;95075.84;5011905;28;8836;-60
2022/12/25 04:38:37;;;;;;;;;62.50;53.50;;;;;19.25;53.53;95036.53;5052476;28;8828;-59
2022/12/25 04:41:10;;;;;;;;;63.40;52.20;;;;;19.26;52.76;95043.63;5052865;28;8855;-60
2022/12/25 04:43:39;;;;;;;;;62.20;54.00;;;;;19.25;52.98;95039.31;5052243;28;8874;-59
2022/12/25 04:46:09;;;;;;;;;61.00;52.00;;;;;19.26;53.02;95040.88;5052164;28;8851;-60
2022/12/25 04:48:38;;;;;;;;;63.00;53.25;;;;;19.25;52.93;95040.09;5052822;28;8812;-60
2022/12/25 04:51:19;;;;;;;;;61.00;53.00;;;;;19.26;53.03;95043.63;5051928;28;8847;-60
2022/12/25 04:53:51;;;;;;;;;64.00;53.40;;;;;19.26;52.34;95044.41;5052028;28;8843;-60
2022/12/25 04:56:22;;;;;;;;;63.40;54.60;;;;;19.27;52.70;95039.66;5052354;28;8816;-60
2022/12/25 04:58:52;;;;;;;;;63.80;55.00;;;;;19.26;52.52;95041.66;5052182;28;8836;-60
2022/12/25 05:01:22;;;;;;;;;62.80;53.20;;;;;19.27;52.68;95034.13;5051773;28;8858;-60
2022/12/25 05:03:51;;;;;;;;;62.80;54.60;;;;;19.27;52.42;95032.16;5051896;28;8848;-60
2022/12/25 05:06:21;;;;;;;;;61.00;52.80;;;;;19.27;52.69;95026.63;5051780;28;8828;-59
2022/12/25 05:08:50;;;;;;;;;67.80;56.60;;;;;19.27;51.91;95023.06;5052452;28;8831;-60
2022/12/25 05:11:20;;;;;;;;;68.40;58.00;;;;;19.28;52.31;95027.41;5051855;28;8901;-60
2022/12/25 05:13:49;;;;;;;;;66.20;56.40;;;;;19.27;52.34;95028.59;5052343;28;8820;-59
2022/12/25 05:16:20;;;;;;;;;63.00;53.60;;;;;19.27;52.54;95025.84;5052228;28;8830;-60
2022/12/25 05:18:51;;;;;;;;;65.40;56.00;;;;;19.27;52.42;95023.06;5052287;28;8854;-60
2022/12/25 05:21:21;;;;;;;;;64.80;56.20;;;;;19.27;52.37;95026.63;5052283;28;8828;-60
2022/12/25 05:23:51;;;;;;;;;59.20;52.00;;;;;19.26;52.35;95022.31;5052167;28;8820;-61
2022/12/25 05:26:23;;;;;;;;;65.80;56.20;;;;;19.27;52.10;95023.06;5052277;28;8843;-60
2022/12/25 05:28:54;;;;;;;;;65.20;56.00;;;;;19.26;52.06;95027.84;5051580;28;8832;-59
2022/12/25 05:31:24;;;;;;;;;63.60;54.60;;;;;19.26;52.35;95019.53;5052160;28;8838;-60
2022/12/25 05:33:53;;;;;;;;;65.00;55.80;;;;;19.26;52.60;95022.31;5052154;28;8844;-60
2022/12/25 05:36:22;;;;;;;;;63.40;54.60;;;;;19.25;53.13;95015.22;5051509;28;8867;-60
2022/12/25 05:38:52;;;;;;;;;60.40;52.00;;;;;19.26;52.87;95016.78;5051590;28;8820;-60
2022/12/25 05:41:21;;;;;;;;;59.20;52.00;;;;;19.25;52.79;95012.47;5051423;28;8827;-60
2022/12/25 05:43:54;;;;;;;;;59.00;52.00;;;;;19.26;52.66;95010.47;5052074;28;8816;-60
2022/12/25 05:46:23;;;;;;;;;61.20;53.20;;;;;19.25;52.79;95009.69;5051412;28;8839;-60
2022/12/25 05:48:53;;;;;;;;;60.80;52.40;;;;;19.26;52.74;95004.94;5051360;28;8856;-60
2022/12/25 05:51:24;;;;;;;;;60.60;52.40;;;;;19.25;52.46;95012.47;5051947;28;8852;-60
2022/12/25 05:53:53;;;;;;;;;61.00;53.00;;;;;19.25;52.51;95006.13;5051609;28;8862;-60
2022/12/25 05:56:23;;;;;;;;;60.20;51.60;;;;;19.24;52.42;95013.66;5052029;28;8848;-60
2022/12/25 05:58:53;;;;;;;;;61.00;53.00;;;;;19.25;52.53;95017.97;5051172;28;8867;-60
2022/12/25 06:01:25;;;;;;;;;61.00;52.60;;;;;19.24;52.21;95016.44;5051167;28;8840;-60
2022/12/25 06:03:56;;;;;;;;;62.75;54.00;;;;;19.25;52.49;95023.50;5050973;28;8831;-60
2022/12/25 06:06:27;;;;;;;;;61.20;53.20;;;;;19.25;52.56;95031.81;5051827;28;8850;-60
2022/12/25 06:08:57;;;;;;;;;63.00;53.60;;;;;19.23;52.07;95028.69;5051251;28;8943;-59
2022/12/25 06:11:27;;;;;;;;;60.80;52.60;;;;;19.22;52.19;95027.13;5051210;28;8828;-60
2022/12/25 06:13:57;;;;;;;;;62.25;53.25;;;;;19.22;52.39;95029.13;5051755;28;8839;-59
2022/12/25 06:16:28;;;;;;;;;63.00;54.00;;;;;19.21;52.44;95033.09;5051156;28;8947;-60
2022/12/25 06:19:06;;;;;;;;;61.00;52.25;;;;;19.21;52.73;95031.09;5051548;28;8858;-60
2022/12/25 06:21:37;;;;;;;;;61.50;53.50;;;;;19.20;52.35;95028.78;5051043;28;8921;-60
2022/12/25 06:24:06;;;;;;;;;63.75;53.25;;;;;19.20;52.54;95032.31;5051203;28;8866;-60
2022/12/25 06:26:36;;;;;;;;;62.20;53.80;;;;;19.18;52.54;95026.44;5034336;28;8874;-61
2022/12/25 06:29:05;;;;;;;;;63.00;53.50;;;;;19.18;52.59;95026.44;5051745;28;8946;-61
2022/12/25 06:31:37;;;;;;;;;61.50;53.50;;;;;19.17;52.55;95027.66;5051666;28;8832;-60
2022/12/25 06:34:07;;;;;;;;;63.40;53.80;;;;;19.17;52.33;95030.41;5051817;28;8836;-60
2022/12/25 06:36:38;;;;;;;;;63.40;54.00;;;;;19.17;52.31;95037.91;5050878;28;8907;-61
2022/12/25 06:39:09;;;;;;;;;63.00;54.80;;;;;19.16;52.46;95039.91;5051555;28;8828;-61
2022/12/25 06:41:39;;;;;;;;;65.60;56.20;;;;;19.15;52.61;95047.41;5035299;28;8913;-60
2022/12/25 06:44:11;;;;;;;;;67.00;57.20;;;;;19.14;52.54;95040.34;5054410;28;8851;-60
2022/12/25 06:46:41;;;;;;;;;65.60;56.20;;;;;19.14;52.49;95045.88;5054526;28;8859;-61
2022/12/25 06:49:12;;;;;;;;;65.40;55.40;;;;;19.13;52.49;95058.13;5055058;28;8897;-61
2022/12/25 06:51:45;;;;;;;;;68.00;58.00;;;;;19.13;52.48;95054.59;5054468;28;8854;-61
2022/12/25 06:54:17;;;;;;;;;67.40;57.80;;;;;19.13;52.55;95058.13;5054504;28;8820;-60
2022/12/25 06:56:49;;;;;;;;;63.80;54.00;;;;;19.13;52.50;95054.59;5054682;28;8828;-60
2022/12/25 06:59:20;;;;;;;;;68.80;58.80;;;;;19.13;52.57;95055.38;5053941;28;8828;-60
2022/12/25 07:01:56;;;;;;;;;64.20;55.60;;;;;19.12;52.39;95055.78;5054128;28;8952;-59
2022/12/25 07:04:34;;;;;;;;;64.60;55.20;;;;;19.11;52.39;95054.22;5035883;28;8963;-59
2022/12/25 07:07:06;;;;;;;;;65.20;55.40;;;;;19.12;52.63;95069.59;5054164;28;8832;-61
2022/12/25 07:09:37;;;;;;;;;66.40;56.00;;;;;19.10;52.57;95067.28;5054610;28;8832;-60
2022/12/25 07:12:18;;;;;;;;;64.20;55.00;;;;;19.09;52.58;95068.47;5054649;28;8831;-61
2022/12/25 07:14:48;;;;;;;;;61.20;52.60;;;;;19.08;52.74;95066.91;5053939;28;8850;-61
2022/12/25 07:17:20;;;;;;;;;64.40;55.40;;;;;19.08;52.53;95072.44;5053691;28;8840;-60
2022/12/25 07:19:54;;;;;;;;;60.80;52.60;;;;;19.08;52.40;95077.97;5054304;28;8820;-59
2022/12/25 07:22:27;;;;;;;;;64.20;54.60;;;;;19.08;52.42;95079.97;5053744;28;8831;-59
2022/12/25 07:24:56;;;;;;;;;66.60;56.20;;;;;19.07;52.37;95073.66;5052478;28;8855;-60
2022/12/25 07:27:27;;;;;;;;;60.60;52.80;;;;;19.07;52.52;95078.41;5054187;28;8828;-59
2022/12/25 07:29:56;;;;;;;;;61.80;52.40;;;;;19.08;52.63;95085.50;5053544;28;8854;-60
2022/12/25 07:32:28;;;;;;;;;62.00;53.40;;;;;19.08;52.88;95085.50;5053949;28;8832;-60
2022/12/25 07:34:58;;;;;;;;;63.80;54.40;;;;;19.09;52.71;95081.53;5053835;28;8820;-59
2022/12/25 07:37:28;;;;;;;;;62.60;53.60;;;;;19.08;52.65;95086.25;5053468;28;8852;-60
2022/12/25 07:39:57;;;;;;;;;65.40;56.60;;;;;19.10;52.72;95083.09;5053331;28;8962;-60
2022/12/25 07:42:26;;;;;;;;;60.20;52.00;;;;;19.08;52.05;95080.75;5053384;28;8812;-60
2022/12/25 07:44:56;;;;;;;;;61.80;53.00;;;;;19.07;51.97;95095.75;5035846;28;8856;-60
2022/12/25 07:47:25;;;;;;;;;65.60;56.00;;;;;19.07;52.04;95095.00;5053345;28;8828;-61
2022/12/25 07:49:55;;;;;;;;;60.80;52.00;;;;;19.05;52.04;95091.88;5053210;28;8840;-62
2022/12/25 07:52:25;;;;;;;;;60.50;52.25;;;;;19.09;53.39;95087.06;5053373;28;8820;-61
2022/12/25 07:54:54;;;;;;;;;62.60;53.80;;;;;19.09;53.87;95085.06;5053226;28;8839;-60
2022/12/25 07:57:24;;;;;;;;;61.60;53.60;;;;;19.10;55.06;95094.91;5053034;28;8839;-61
2022/12/25 07:59:57;;;;;;;;;62.80;54.00;;;;;19.23;53.48;95094.25;5035442;28;8871;-67
2022/12/25 08:02:27;;;;;;;;;63.60;53.00;;;;;19.23;54.33;95102.53;5052992;28;8922;-61
2022/12/25 08:04:58;;;;;;;;;60.40;52.40;;;;;19.21;54.57;95102.19;5052825;28;8851;-61
2022/12/25 08:07:28;;;;;;;;;62.80;53.60;;;;;19.20;54.68;95093.09;5053057;28;8835;-61
2022/12/25 08:09:57;;;;;;;;;61.40;53.40;;;;;19.20;55.12;95092.34;5052785;28;8820;-61
2022/12/25 08:12:27;;;;;;;;;65.00;55.00;;;;;19.17;55.24;95105.03;5052788;28;8836;-61
2022/12/25 08:14:56;;;;;;;;;66.20;57.00;;;;;19.17;55.50;95101.47;5052931;28;8946;-61
2022/12/25 08:17:25;;;;;;;;;64.80;55.20;;;;;19.15;55.57;95107.44;5052992;28;8871;-61
2022/12/25 08:19:55;;;;;;;;;63.20;54.00;;;;;19.14;55.66;95114.16;5053062;28;8846;-61
2022/12/25 08:22:24;;;;;;;;;61.40;53.40;;;;;19.13;55.81;95115.38;5053278;28;8962;-61
2022/12/25 08:24:54;;;;;;;;;65.20;56.40;;;;;19.13;55.37;95109.84;5053034;28;8828;-61
2022/12/25 08:27:24;;;;;;;;;60.50;52.25;;;;;19.12;55.97;95120.13;5035515;28;8932;-61
2022/12/25 08:29:54;;;;;;;;;68.00;58.60;;;;;19.12;56.13;95127.63;5052384;28;8824;-61
2022/12/25 08:32:24;;;;;;;;;65.20;56.00;;;;;19.11;56.06;95123.31;5052439;28;8858;-61
2022/12/25 08:34:53;;;;;;;;;63.20;55.00;;;;;19.11;56.17;95131.59;5053087;28;8855;-61
2022/12/25 08:37:23;;;;;;;;;60.80;52.80;;;;;19.33;56.19;95128.38;5035304;28;8852;-62
2022/12/25 08:39:53;;;;;;;;;70.80;59.20;;;;;19.42;56.53;95131.31;5052473;28;8843;-65
2022/12/25 08:42:25;;;;;;;;;68.40;58.40;;;;;19.02;43.95;95129.44;5052786;28;8979;-62
2022/12/25 08:44:58;;;;;;;;;69.60;57.40;;;;;18.59;42.70;95144.88;5052764;28;8828;-62
2022/12/25 08:47:27;;;;;;;;;69.40;57.80;;;;;18.30;41.86;95139.88;5052622;28;8831;-63
2022/12/25 08:49:57;;;;;;;;;63.00;54.00;;;;;18.10;42.36;95150.09;5052020;28;8946;-63
2022/12/25 08:52:28;;;;;;;;;65.25;56.00;;;;;17.90;42.43;95145.28;5052001;28;8843;-63
2022/12/25 08:54:58;;;;;;;;;64.50;56.25;;;;;17.74;42.88;95162.47;5052013;28;8820;-63
2022/12/25 08:57:27;;;;;;;;;65.00;56.00;;;;;17.63;42.95;95165.41;5052538;28;8874;-64
2022/12/25 08:59:57;;;;;;;;;69.80;59.00;;;;;17.53;42.94;95161.59;5052263;28;8850;-62
2022/12/25 09:02:27;;;;;;;;;73.00;59.00;;;;;17.51;43.62;95171.47;5052388;28;8870;-63
2022/12/25 09:04:56;;;;;;;;;66.25;56.25;;;;;17.42;43.40;95172.78;5051201;28;8847;-63
2022/12/25 09:07:25;;;;;;;;;68.50;57.50;;;;;17.36;43.92;95171.69;5052285;28;8839;-62
2022/12/25 09:09:54;;;;;;;;;66.75;56.25;;;;;17.38;44.73;95165.75;5051537;28;8835;-61
2022/12/25 09:12:24;;;;;;;;;64.75;55.50;;;;;17.55;44.66;95164.72;5051789;28;8820;-61
2022/12/25 09:14:54;;;;;;;;;67.25;56.75;;;;;17.69;45.31;95172.00;5052263;28;8832;-62
2022/12/25 09:17:24;;;;;;;;;65.25;55.25;;;;;17.81;46.01;95162.34;5051726;28;8855;-61
2022/12/25 09:19:53;;;;;;;;;76.25;64.00;;;;;17.94;46.86;95172.81;5051870;28;8860;-60
2022/12/25 09:22:22;;;;;;;;;69.25;59.00;;;;;18.02;47.23;95171.53;5052340;28;8836;-62
2022/12/25 09:24:51;;;;;;;;;68.50;58.50;;;;;18.09;47.56;95163.13;5052350;28;8820;-61
2022/12/25 09:27:22;;;;;;;;;77.25;65.50;;;;;18.16;48.06;95167.75;5051661;28;8847;-61
2022/12/25 09:29:51;;;;;;;;;78.50;63.75;;;;;18.21;48.46;95176.28;5033891;28;8828;-61
2022/12/25 09:32:21;;;;;;;;;81.25;66.25;;;;;18.28;49.03;95182.91;5051485;28;8820;-61
2022/12/25 09:34:51;;;;;;;;;78.25;64.25;;;;;18.34;50.36;95190.25;5052850;28;8832;-63
2022/12/25 09:37:20;;;;;;;;;76.00;63.00;;;;;18.38;49.79;95187.47;5051663;28;8901;-60
2022/12/25 09:39:51;;;;;;;;;71.50;59.75;;;;;18.31;46.11;95202.16;5051980;28;8831;-62
2022/12/25 09:42:30;;;;;;;;;69.00;58.50;;;;;18.46;46.66;95199.13;5051367;28;8836;-62
2022/12/25 09:45:10;;;;;;;;;66.25;55.50;;;;;18.64;47.79;95196.84;5051726;28;8873;-64
2022/12/25 09:47:43;;;;;;;;;67.60;57.40;;;;;18.67;48.79;95209.00;5051430;28;8836;-64
2022/12/25 09:50:20;;;;;;;;;68.60;58.00;;;;;18.67;48.94;95203.50;5034177;28;8860;-61
2022/12/25 09:52:56;;;;;;;;;66.75;57.25;;;;;18.69;50.68;95206.63;5051330;28;8836;-63
2022/12/25 09:55:30;;;;;;;;;69.20;57.60;;;;;18.71;52.01;95217.22;5051136;28;8844;-63
2022/12/25 09:58:07;;;;;;;;;65.50;56.00;;;;;18.71;51.46;95209.75;5051975;28;8827;-65
2022/12/25 10:00:46;;;;;;;;;68.20;57.40;;;;;18.73;52.59;95217.59;5051738;28;8885;-65
2022/12/25 10:03:42;;;;;;;;;71.40;60.60;;;;;18.73;51.16;95218.34;5034309;28;8831;-63
2022/12/25 10:06:51;;;;;;;;;75.00;62.40;;;;;18.73;51.62;95212.84;5038352;28;8832;-63
2022/12/25 10:10:02;;;;;;;;;65.25;55.00;;;;;18.72;52.15;95218.78;5050722;28;8858;-63
2022/12/25 10:12:59;;;;;;;;;65.00;55.25;;;;;18.73;51.33;95215.59;5050949;28;8836;-69
2022/12/25 10:15:38;;;;;;;;;67.80;56.80;;;;;18.77;51.47;95218.28;5053557;28;8820;-64
2022/12/25 10:18:27;;;;;;;;;67.80;56.00;;;;;18.80;52.91;95212.72;5054629;28;8836;-62
2022/12/25 10:21:00;;;;;;;;;62.25;53.50;;;;;18.81;54.73;95205.97;5054561;28;8836;-62
2022/12/25 10:23:44;;;;;;;;;65.00;56.00;;;;;18.82;55.76;95209.53;5054836;28;8816;-61
2022/12/25 10:26:24;;;;;;;;;66.20;56.00;;;;;18.81;55.97;95211.50;5054634;28;8890;-62
2022/12/25 10:28:59;;;;;;;;;65.40;56.20;;;;;18.90;56.07;95208.19;5054237;28;8858;-61
2022/12/25 10:31:33;;;;;;;;;66.50;56.75;;;;;18.87;56.02;95203.50;5055087;28;8855;-62
2022/12/25 10:34:05;;;;;;;;;64.60;56.00;;;;;18.88;55.66;95194.00;5054709;28;8963;-64
2022/12/25 10:36:35;;;;;;;;;62.50;53.25;;;;;18.93;55.90;95188.03;5054567;28;8867;-59
2022/12/25 10:39:05;;;;;;;;;66.75;56.25;;;;;18.97;55.94;95185.97;5054633;28;8844;-59
2022/12/25 10:42:02;;;;;;;;;66.00;56.25;;;;;18.84;52.64;95180.28;5054643;28;8871;-58
2022/12/25 10:44:33;;;;;;;;;67.25;57.25;;;;;18.82;53.50;95182.66;5054976;28;8823;-60
2022/12/25 10:47:03;;;;;;;;;65.80;56.00;;;;;18.81;54.00;95177.59;5054384;28;8839;-58
2022/12/25 10:49:38;;;;;;;;;66.60;56.60;;;;;18.79;54.02;95178.00;5054199;28;8938;-58
2022/12/25 10:52:23;;;;;;;;;65.25;55.75;;;;;18.77;54.22;95179.63;5054557;28;8843;-59
2022/12/25 10:54:54;;;;;;;;;66.60;56.20;;;;;18.78;54.48;95184.75;5054640;28;8832;-59
2022/12/25 10:57:27;;;;;;;;;66.50;55.25;;;;;18.76;54.28;95175.31;5055042;28;8855;-59
2022/12/25 11:00:00;;;;;;;;;65.00;55.75;;;;;18.75;54.53;95177.28;5054978;28;8824;-59
2022/12/25 11:02:31;;;;;;;;;65.75;56.50;;;;;18.75;54.40;95176.53;5054277;28;8925;-59
2022/12/25 11:05:04;;;;;;;;;66.00;56.00;;;;;18.74;54.35;95167.44;5054191;28;8836;-59
2022/12/25 11:07:45;;;;;;;;;65.25;55.50;;;;;18.74;53.97;95161.16;5054952;28;8852;-58
2022/12/25 11:10:42;;;;;;;;;66.40;56.40;;;;;18.72;54.05;95156.06;5054313;28;8847;-58
2022/12/25 11:13:25;;;;;;;;;66.80;55.60;;;;;18.72;53.96;95152.50;5054452;28;8808;-58
2022/12/25 11:16:30;;;;;;;;;66.00;56.80;;;;;18.70;53.59;95155.72;5069353;28;8851;-59
2022/12/25 11:19:00;;;;;;;;;63.80;55.00;;;;;18.70;53.49;95157.66;5054777;28;8823;-59
2022/12/25 11:21:36;;;;;;;;;67.75;56.25;;;;;18.68;53.39;95156.09;5069168;28;8868;-59
2022/12/25 11:24:17;;;;;;;;;65.60;56.00;;;;;18.68;53.30;95155.34;5054274;28;8832;-60
2022/12/25 11:26:51;;;;;;;;;71.00;61.00;;;;;18.68;53.28;95152.59;5052955;28;8951;-60
2022/12/25 11:29:36;;;;;;;;;65.25;55.25;;;;;18.68;53.67;95150.59;5053646;28;8828;-60
2022/12/25 11:32:32;;;;;;;;;66.00;54.75;;;;;18.68;53.62;95147.06;5053795;28;8942;-59
2022/12/25 11:35:03;;;;;;;;;65.40;56.80;;;;;18.67;53.60;95151.03;5053621;28;8812;-59
2022/12/25 11:37:43;;;;;;;;;65.75;56.00;;;;;18.68;53.55;95142.31;5053743;28;8943;-60
2022/12/25 11:40:23;;;;;;;;;63.00;54.75;;;;;18.67;53.46;95138.00;5053301;28;8959;-59
2022/12/25 11:43:10;;;;;;;;;63.25;54.00;;;;;18.67;53.56;95134.44;5053629;28;8957;-57
2022/12/25 11:46:23;;;;;;;;;68.80;57.40;;;;;18.67;53.62;95137.22;5051686;28;8860;-60
2022/12/25 11:49:01;;;;;;;;;66.80;56.40;;;;;18.66;53.43;95122.63;5044108;28;8855;-57
2022/12/25 11:51:41;;;;;;;;;65.80;56.40;;;;;18.67;53.48;95126.97;5069192;28;8860;-60
2022/12/25 11:54:45;;;;;;;;;62.80;54.40;;;;;18.65;53.63;95112.78;5052891;28;8916;-61
2022/12/25 11:57:15;;;;;;;;;64.80;55.60;;;;;18.65;53.68;95110.03;5053231;28;8860;-60
2022/12/25 12:00:05;;;;;;;;;65.40;55.20;;;;;18.65;53.54;95099.00;5053169;28;8820;-60
2022/12/25 12:02:44;;;;;;;;;66.40;56.00;;;;;18.67;53.37;95101.31;5052905;28;8869;-60
2022/12/25 12:05:25;;;;;;;;;62.60;54.00;;;;;18.67;54.54;95093.03;5052769;28;8871;-59
2022/12/25 12:07:59;;;;;;;;;66.25;56.25;;;;;18.70;54.83;95088.63;5036145;28;8862;-60
2022/12/25 12:10:54;;;;;;;;;65.20;55.00;;;;;18.70;54.85;95083.09;5053655;28;8834;-59
2022/12/25 12:13:27;;;;;;;;;67.50;56.00;;;;;18.70;54.85;95083.09;5053115;28;8866;-60
2022/12/25 12:15:57;;;;;;;;;61.40;52.20;;;;;18.69;54.74;95082.34;5053293;28;8831;-59
2022/12/25 12:18:27;;;;;;;;;64.00;55.00;;;;;18.71;54.33;95081.91;5053063;28;8858;-60
2022/12/25 12:21:02;;;;;;;;;64.25;55.00;;;;;18.72;54.98;95075.97;5053052;28;8951;-59
2022/12/25 12:23:46;;;;;;;;;110.75;97.00;;;;;18.74;55.14;95073.53;5052552;28;8937;-59
2022/12/25 12:26:25;;;;;;;;;133.50;112.50;;;;;18.77;54.75;95077.44;5052776;28;8828;-59
2022/12/25 12:28:59;;;;;;;;;112.00;93.33;;;;;18.75;54.95;95061.31;5034930;28;10625;-61
2022/12/25 12:31:42;;;;;;;;;110.25;93.00;;;;;18.76;54.34;95059.34;5052972;28;9144;-70
2022/12/25 12:34:36;;;;;;;;;100.50;77.00;;;;;18.77;54.72;95058.91;5052291;28;8843;-65
2022/12/25 12:37:37;;;;;;;;;87.25;68.25;;;;;18.82;54.32;95050.09;5052963;28;8846;-68
2022/12/25 12:40:33;;;;;;;;;84.25;66.75;;;;;18.83;54.86;95039.84;5053007;28;8946;-64
2022/12/25 12:43:22;;;;;;;;;86.75;68.00;;;;;18.87;55.25;95042.53;5034782;28;8863;-64
2022/12/25 12:46:05;;;;;;;;;83.25;68.00;;;;;18.88;55.14;95044.09;5052574;28;8848;-68
2022/12/25 12:48:43;;;;;;;;;84.50;67.25;;;;;18.90;55.66;95036.91;5052839;28;8812;-66
2022/12/25 12:51:27;;;;;;;;;87.00;67.00;;;;;18.91;55.68;95032.16;5052057;28;8813;-63
2022/12/25 12:54:23;;;;;;;;;79.50;63.50;;;;;18.93;55.89;95025.06;5051765;28;8847;-63
2022/12/25 12:57:05;;;;;;;;;80.00;65.00;;;;;18.97;56.33;95025.72;5051277;28;8962;-64
2022/12/25 12:59:45;;;;;;;;;81.75;63.75;;;;;19.04;56.81;95016.50;5053181;28;8939;-67
2022/12/25 13:02:42;;;;;;;;;82.00;62.50;;;;;18.98;57.42;95021.75;5036195;28;9000;-69
2022/12/25 13:05:36;;;;;;;;;79.25;63.25;;;;;18.96;58.06;95015.88;5051883;28;8840;-69
2022/12/25 13:08:23;;;;;;;;;71.75;59.50;;;;;18.92;58.60;95004.16;5052435;28;8862;-67
2022/12/25 13:11:45;;;;;;;;;78.00;64.25;;;;;18.90;58.79;95006.53;5034566;28;9660;-66
2022/12/25 13:14:22;;;;;;;;;79.50;64.00;;;;;18.88;58.94;95006.19;5034750;28;9641;-65
2022/12/25 13:16:53;;;;;;;;;75.50;62.75;;;;;18.86;59.65;95003.06;5051490;28;8824;-65
2022/12/25 13:19:26;;;;;;;;;79.75;63.00;;;;;18.84;59.65;94997.97;5051996;28;8832;-64
2022/12/25 13:22:02;;;;;;;;;80.75;65.25;;;;;18.83;60.37;94990.13;5051504;28;8852;-63
2022/12/25 13:24:35;;;;;;;;;74.50;62.50;;;;;18.82;60.52;95000.38;5051672;28;8816;-64
2022/12/25 13:27:32;;;;;;;;;76.75;63.00;;;;;18.81;61.04;94998.06;5051072;28;8871;-65
2022/12/25 13:30:19;;;;;;;;;74.00;61.25;;;;;18.81;60.68;94998.06;4970744;28;8861;-65
2022/12/25 13:32:52;;;;;;;;;73.75;60.50;;;;;18.80;61.46;94988.22;4990847;28;8874;-64
2022/12/25 13:35:22;;;;;;;;;73.60;61.80;;;;;18.80;61.39;94996.50;4990274;28;8857;-64
2022/12/25 13:38:00;;;;;;;;;73.75;60.50;;;;;18.79;61.54;94987.44;4990289;28;8858;-64
2022/12/25 13:40:33;;;;;;;;;65.50;55.50;;;;;18.80;62.10;94985.44;4990652;28;8868;-64
2022/12/25 13:43:10;;;;;;;;;72.75;61.00;;;;;18.79;61.67;94981.13;4990292;28;8863;-65
2022/12/25 13:45:41;;;;;;;;;72.00;58.60;;;;;18.77;62.05;94978.81;4989276;28;8866;-66
2022/12/25 13:48:32;;;;;;;;;72.50;59.25;;;;;18.77;62.18;94980.78;4990137;28;8968;-66
2022/12/25 13:51:15;;;;;;;;;70.80;58.40;;;;;18.78;62.39;94977.59;4993393;28;8850;-65
2022/12/25 13:53:46;;;;;;;;;72.80;60.20;;;;;18.92;62.23;94979.28;4994281;28;8862;-63